sensor_id;sensor_type;location;lat;lon;timestamp;pressure;altitude;pressure_sealevel;temperature;humidity
46846;BME280;33947;46.804;134.252;2023-03-24T00:00:11;101125.84;;;0.23;61.36
46846;BME280;33947;46.804;134.252;2023-03-24T00:03:16;101177.34;;;1.01;60.22
46846;BME280;33947;46.804;134.252;2023-03-24T00:06:20;101158.13;;;1.40;60.45
46846;BME280;33947;46.804;134.252;2023-03-24T00:09:25;101153.25;;;1.59;59.01
46846;BME280;33947;46.804;134.252;2023-03-24T00:12:29;101176.34;;;2.26;57.69
46846;BME280;33947;46.804;134.252;2023-03-24T00:15:34;101172.19;;;1.90;57.83
46846;BME280;33947;46.804;134.252;2023-03-24T00:18:39;101181.59;;;2.83;56.11
46846;BME280;33947;46.804;134.252;2023-03-24T00:21:43;101181.53;;;2.25;55.85
46846;BME280;33947;46.804;134.252;2023-03-24T00:24:47;101156.59;;;2.47;56.43
46846;BME280;33947;46.804;134.252;2023-03-24T00:27:52;101193.47;;;3.15;54.90
46846;BME280;33947;46.804;134.252;2023-03-24T00:30:57;101192.00;;;3.37;53.81
46846;BME280;33947;46.804;134.252;2023-03-24T00:34:01;101191.78;;;2.62;54.93
46846;BME280;33947;46.804;134.252;2023-03-24T00:37:05;101183.28;;;2.24;56.15
46846;BME280;33947;46.804;134.252;2023-03-24T00:40:13;101187.88;;;3.58;53.76
46846;BME280;33947;46.804;134.252;2023-03-24T00:43:19;101207.44;;;3.14;52.06
46846;BME280;33947;46.804;134.252;2023-03-24T00:46:25;101191.84;;;2.65;54.37
46846;BME280;33947;46.804;134.252;2023-03-24T00:49:33;101203.19;;;3.93;52.86
46846;BME280;33947;46.804;134.252;2023-03-24T00:52:47;101225.56;;;3.58;50.89
46846;BME280;33947;46.804;134.252;2023-03-24T00:55:51;101230.13;;;3.73;52.04
46846;BME280;33947;46.804;134.252;2023-03-24T00:58:56;101226.22;;;4.16;50.56
46846;BME280;33947;46.804;134.252;2023-03-24T01:02:00;101233.66;;;4.59;50.65
46846;BME280;33947;46.804;134.252;2023-03-24T01:05:05;101233.56;;;4.48;49.53
46846;BME280;33947;46.804;134.252;2023-03-24T01:08:09;101229.97;;;4.40;50.23
46846;BME280;33947;46.804;134.252;2023-03-24T01:11:13;101242.69;;;4.92;49.36
46846;BME280;33947;46.804;134.252;2023-03-24T01:14:19;101233.94;;;4.95;48.89
46846;BME280;33947;46.804;134.252;2023-03-24T01:17:23;101235.09;;;5.40;47.41
46846;BME280;33947;46.804;134.252;2023-03-24T01:20:32;101212.97;;;5.09;48.20
46846;BME280;33947;46.804;134.252;2023-03-24T01:23:38;101245.69;;;5.46;47.18
46846;BME280;33947;46.804;134.252;2023-03-24T01:26:44;101243.63;;;4.97;49.10
46846;BME280;33947;46.804;134.252;2023-03-24T01:29:49;101231.41;;;5.05;48.50
46846;BME280;33947;46.804;134.252;2023-03-24T01:32:54;101242.78;;;5.04;48.70
46846;BME280;33947;46.804;134.252;2023-03-24T01:35:59;101244.72;;;5.32;48.95
46846;BME280;33947;46.804;134.252;2023-03-24T01:39:03;101247.03;;;3.97;47.01
46846;BME280;33947;46.804;134.252;2023-03-24T01:42:16;101243.00;;;4.26;48.13
46846;BME280;33947;46.804;134.252;2023-03-24T01:49:00;101250.53;;;4.86;49.08
46846;BME280;33947;46.804;134.252;2023-03-24T01:52:10;101247.44;;;5.46;45.71
46846;BME280;33947;46.804;134.252;2023-03-24T01:55:17;101240.34;;;5.32;46.67
46846;BME280;33947;46.804;134.252;2023-03-24T01:58:27;101246.41;;;5.20;45.93
46846;BME280;33947;46.804;134.252;2023-03-24T02:01:58;101251.94;;;5.67;46.56
46846;BME280;33947;46.804;134.252;2023-03-24T02:05:14;101232.31;;;5.12;45.94
46846;BME280;33947;46.804;134.252;2023-03-24T02:08:45;101248.44;;;5.71;43.50
46846;BME280;33947;46.804;134.252;2023-03-24T02:11:51;101247.41;;;5.36;46.19
46846;BME280;33947;46.804;134.252;2023-03-24T02:14:55;101246.97;;;3.89;47.75
46846;BME280;33947;46.804;134.252;2023-03-24T02:22:22;101252.13;;;3.80;45.17
46846;BME280;33947;46.804;134.252;2023-03-24T02:42:39;101284.00;;;4.10;45.12
46846;BME280;33947;46.804;134.252;2023-03-24T02:52:10;101280.13;;;3.80;47.33
46846;BME280;33947;46.804;134.252;2023-03-24T02:55:28;101283.25;;;4.18;46.66
46846;BME280;33947;46.804;134.252;2023-03-24T02:58:50;101282.72;;;3.76;45.32
46846;BME280;33947;46.804;134.252;2023-03-24T03:02:03;101291.19;;;3.57;44.16
46846;BME280;33947;46.804;134.252;2023-03-24T03:05:34;101287.97;;;3.16;47.38
46846;BME280;33947;46.804;134.252;2023-03-24T03:08:40;101303.13;;;3.98;45.43
46846;BME280;33947;46.804;134.252;2023-03-24T03:11:48;101293.63;;;4.08;46.14
46846;BME280;33947;46.804;134.252;2023-03-24T03:15:06;101305.75;;;4.76;45.79
46846;BME280;33947;46.804;134.252;2023-03-24T03:22:18;101304.34;;;3.57;43.98
46846;BME280;33947;46.804;134.252;2023-03-24T03:25:28;101296.81;;;3.22;46.29
46846;BME280;33947;46.804;134.252;2023-03-24T03:28:38;101311.84;;;3.94;45.24
46846;BME280;33947;46.804;134.252;2023-03-24T03:31:50;101313.19;;;3.62;46.04
46846;BME280;33947;46.804;134.252;2023-03-24T03:35:07;101322.63;;;4.15;45.63
46846;BME280;33947;46.804;134.252;2023-03-24T03:38:44;101318.94;;;4.01;44.51
46846;BME280;33947;46.804;134.252;2023-03-24T03:41:47;101317.91;;;3.88;45.96
46846;BME280;33947;46.804;134.252;2023-03-24T03:44:52;101313.59;;;3.93;45.48
46846;BME280;33947;46.804;134.252;2023-03-24T03:47:56;101322.91;;;4.39;45.39
46846;BME280;33947;46.804;134.252;2023-03-24T03:51:01;101322.38;;;4.72;45.34
46846;BME280;33947;46.804;134.252;2023-03-24T03:54:23;101321.41;;;3.85;45.59
46846;BME280;33947;46.804;134.252;2023-03-24T03:57:30;101313.47;;;3.22;46.67
46846;BME280;33947;46.804;134.252;2023-03-24T04:00:45;101293.34;;;3.23;46.44
46846;BME280;33947;46.804;134.252;2023-03-24T04:04:20;101310.94;;;3.91;46.63
46846;BME280;33947;46.804;134.252;2023-03-24T04:22:58;101285.28;;;3.70;45.47
46846;BME280;33947;46.804;134.252;2023-03-24T04:29:36;101278.81;;;3.46;47.70
46846;BME280;33947;46.804;134.252;2023-03-24T04:36:13;101276.31;;;4.28;45.87
46846;BME280;33947;46.804;134.252;2023-03-24T04:39:44;101230.97;;;3.69;46.43
46846;BME280;33947;46.804;134.252;2023-03-24T04:42:52;101285.91;;;4.23;47.07
46846;BME280;33947;46.804;134.252;2023-03-24T04:46:04;101269.28;;;3.53;48.37
46846;BME280;33947;46.804;134.252;2023-03-24T04:49:30;101233.38;;;3.54;47.87
46846;BME280;33947;46.804;134.252;2023-03-24T04:52:35;101290.53;;;3.70;49.19
46846;BME280;33947;46.804;134.252;2023-03-24T04:55:44;101291.47;;;3.75;47.96
46846;BME280;33947;46.804;134.252;2023-03-24T04:59:07;101299.28;;;3.69;48.13
46846;BME280;33947;46.804;134.252;2023-03-24T05:02:13;101288.56;;;3.57;49.17
46846;BME280;33947;46.804;134.252;2023-03-24T05:05:40;101281.66;;;3.62;48.49
46846;BME280;33947;46.804;134.252;2023-03-24T05:08:45;101285.31;;;3.13;48.66
46846;BME280;33947;46.804;134.252;2023-03-24T05:11:50;101282.75;;;3.80;47.41
46846;BME280;33947;46.804;134.252;2023-03-24T05:14:57;101285.31;;;3.73;48.48
46846;BME280;33947;46.804;134.252;2023-03-24T05:18:03;101279.09;;;3.67;47.89
46846;BME280;33947;46.804;134.252;2023-03-24T05:21:07;101279.91;;;3.61;49.82
46846;BME280;33947;46.804;134.252;2023-03-24T05:24:12;101270.16;;;2.94;50.09
46846;BME280;33947;46.804;134.252;2023-03-24T05:27:16;101283.81;;;3.28;48.94
46846;BME280;33947;46.804;134.252;2023-03-24T05:30:20;101258.53;;;3.36;49.25
46846;BME280;33947;46.804;134.252;2023-03-24T05:33:31;101271.91;;;3.55;48.84
46846;BME280;33947;46.804;134.252;2023-03-24T05:36:35;101284.19;;;3.56;49.41
46846;BME280;33947;46.804;134.252;2023-03-24T05:39:42;101265.91;;;3.64;48.99
46846;BME280;33947;46.804;134.252;2023-03-24T05:43:15;101281.25;;;3.34;49.18
46846;BME280;33947;46.804;134.252;2023-03-24T05:46:30;101273.00;;;3.69;48.83
46846;BME280;33947;46.804;134.252;2023-03-24T05:49:38;101290.41;;;3.61;49.42
46846;BME280;33947;46.804;134.252;2023-03-24T05:52:42;101284.16;;;3.53;50.02
46846;BME280;33947;46.804;134.252;2023-03-24T05:56:06;101290.81;;;3.29;49.65
46846;BME280;33947;46.804;134.252;2023-03-24T05:59:36;101289.09;;;3.31;50.37
46846;BME280;33947;46.804;134.252;2023-03-24T06:02:54;101281.25;;;3.34;50.45
46846;BME280;33947;46.804;134.252;2023-03-24T06:06:13;101277.47;;;3.16;50.37
46846;BME280;33947;46.804;134.252;2023-03-24T06:09:19;101283.47;;;3.06;51.70
46846;BME280;33947;46.804;134.252;2023-03-24T06:12:24;101283.34;;;3.00;51.26
46846;BME280;33947;46.804;134.252;2023-03-24T06:15:36;101284.31;;;3.05;51.78
46846;BME280;33947;46.804;134.252;2023-03-24T06:18:55;101293.44;;;3.30;50.89
46846;BME280;33947;46.804;134.252;2023-03-24T06:22:25;101295.59;;;2.98;51.16
46846;BME280;33947;46.804;134.252;2023-03-24T06:25:30;101292.19;;;3.05;51.11
46846;BME280;33947;46.804;134.252;2023-03-24T06:28:54;101302.53;;;2.96;52.10
46846;BME280;33947;46.804;134.252;2023-03-24T06:32:00;101299.66;;;3.36;50.67
46846;BME280;33947;46.804;134.252;2023-03-24T06:35:07;101304.44;;;3.65;50.35
46846;BME280;33947;46.804;134.252;2023-03-24T06:38:19;101301.19;;;3.21;51.05
46846;BME280;33947;46.804;134.252;2023-03-24T06:41:25;101289.88;;;3.24;51.37
46846;BME280;33947;46.804;134.252;2023-03-24T06:44:33;101304.66;;;3.18;51.16
46846;BME280;33947;46.804;134.252;2023-03-24T06:47:37;101296.97;;;2.77;52.37
46846;BME280;33947;46.804;134.252;2023-03-24T06:50:42;101298.69;;;2.75;52.85
46846;BME280;33947;46.804;134.252;2023-03-24T06:53:47;101300.78;;;2.95;51.57
46846;BME280;33947;46.804;134.252;2023-03-24T06:56:51;101260.06;;;2.66;51.88
46846;BME280;33947;46.804;134.252;2023-03-24T06:59:57;101294.53;;;2.88;51.83
46846;BME280;33947;46.804;134.252;2023-03-24T07:03:07;101274.47;;;2.41;52.26
46846;BME280;33947;46.804;134.252;2023-03-24T07:06:14;101292.25;;;2.57;52.49
46846;BME280;33947;46.804;134.252;2023-03-24T07:09:28;101294.25;;;2.71;53.44
46846;BME280;33947;46.804;134.252;2023-03-24T07:12:33;101292.13;;;3.02;51.63
46846;BME280;33947;46.804;134.252;2023-03-24T07:15:37;101291.44;;;3.12;51.77
46846;BME280;33947;46.804;134.252;2023-03-24T07:18:44;101284.41;;;3.10;50.83
46846;BME280;33947;46.804;134.252;2023-03-24T07:21:49;101292.19;;;3.05;52.02
46846;BME280;33947;46.804;134.252;2023-03-24T07:25:04;101277.84;;;2.34;53.19
46846;BME280;33947;46.804;134.252;2023-03-24T07:28:15;101296.53;;;2.52;53.63
46846;BME280;33947;46.804;134.252;2023-03-24T07:31:21;101298.22;;;2.47;53.02
46846;BME280;33947;46.804;134.252;2023-03-24T07:34:34;101296.44;;;2.48;53.09
46846;BME280;33947;46.804;134.252;2023-03-24T07:37:39;101247.22;;;2.33;52.96
46846;BME280;33947;46.804;134.252;2023-03-24T07:40:45;101292.31;;;2.14;54.82
46846;BME280;33947;46.804;134.252;2023-03-24T07:43:49;101305.00;;;1.93;54.75
46846;BME280;33947;46.804;134.252;2023-03-24T07:46:58;101295.69;;;2.55;52.69
46846;BME280;33947;46.804;134.252;2023-03-24T07:50:04;101294.59;;;2.42;52.89
46846;BME280;33947;46.804;134.252;2023-03-24T07:53:13;101290.44;;;2.53;52.29
46846;BME280;33947;46.804;134.252;2023-03-24T07:56:22;101233.72;;;2.11;53.04
46846;BME280;33947;46.804;134.252;2023-03-24T07:59:30;101295.16;;;2.25;52.71
46846;BME280;33947;46.804;134.252;2023-03-24T08:02:41;101290.66;;;2.20;53.20
46846;BME280;33947;46.804;134.252;2023-03-24T08:06:05;101284.09;;;2.42;52.73
46846;BME280;33947;46.804;134.252;2023-03-24T08:09:24;101291.91;;;2.39;52.21
46846;BME280;33947;46.804;134.252;2023-03-24T08:12:29;101292.47;;;2.22;53.25
46846;BME280;33947;46.804;134.252;2023-03-24T08:15:33;101299.53;;;1.83;53.60
46846;BME280;33947;46.804;134.252;2023-03-24T08:18:38;101284.13;;;1.56;53.79
46846;BME280;33947;46.804;134.252;2023-03-24T08:21:42;101310.28;;;1.54;54.00
46846;BME280;33947;46.804;134.252;2023-03-24T08:24:46;101298.06;;;1.55;53.61
46846;BME280;33947;46.804;134.252;2023-03-24T08:27:51;101295.25;;;1.46;54.47
46846;BME280;33947;46.804;134.252;2023-03-24T08:30:56;101305.91;;;1.55;53.89
46846;BME280;33947;46.804;134.252;2023-03-24T08:34:01;101300.28;;;1.36;54.08
46846;BME280;33947;46.804;134.252;2023-03-24T08:37:05;101316.84;;;1.37;54.78
46846;BME280;33947;46.804;134.252;2023-03-24T08:40:16;101320.78;;;1.18;54.95
46846;BME280;33947;46.804;134.252;2023-03-24T08:43:21;101326.13;;;1.22;54.41
46846;BME280;33947;46.804;134.252;2023-03-24T08:46:27;101317.31;;;1.19;54.97
46846;BME280;33947;46.804;134.252;2023-03-24T08:49:31;101329.53;;;1.20;54.58
46846;BME280;33947;46.804;134.252;2023-03-24T08:52:36;101323.16;;;1.08;55.11
46846;BME280;33947;46.804;134.252;2023-03-24T08:55:41;101335.13;;;0.98;55.75
46846;BME280;33947;46.804;134.252;2023-03-24T08:58:46;101333.63;;;0.73;55.46
46846;BME280;33947;46.804;134.252;2023-03-24T09:01:51;101333.59;;;1.07;54.60
46846;BME280;33947;46.804;134.252;2023-03-24T09:04:56;101342.22;;;0.69;55.60
46846;BME280;33947;46.804;134.252;2023-03-24T09:08:00;101329.25;;;0.40;55.65
46846;BME280;33947;46.804;134.252;2023-03-24T09:11:11;101333.94;;;0.53;56.30
46846;BME280;33947;46.804;134.252;2023-03-24T09:14:17;101337.88;;;0.69;54.82
46846;BME280;33947;46.804;134.252;2023-03-24T09:17:21;101335.50;;;0.79;55.31
46846;BME280;33947;46.804;134.252;2023-03-24T09:20:25;101345.84;;;0.74;55.09
46846;BME280;33947;46.804;134.252;2023-03-24T09:23:29;101350.91;;;0.68;55.07
46846;BME280;33947;46.804;134.252;2023-03-24T09:26:34;101350.38;;;0.48;55.06
46846;BME280;33947;46.804;134.252;2023-03-24T09:29:38;101348.00;;;0.57;55.26
46846;BME280;33947;46.804;134.252;2023-03-24T09:32:43;101332.78;;;0.42;55.80
46846;BME280;33947;46.804;134.252;2023-03-24T09:35:59;101347.41;;;0.35;55.44
46846;BME280;33947;46.804;134.252;2023-03-24T09:39:03;101348.00;;;0.25;56.40
46846;BME280;33947;46.804;134.252;2023-03-24T09:42:17;101346.69;;;0.41;55.86
46846;BME280;33947;46.804;134.252;2023-03-24T09:45:25;101343.22;;;0.40;55.70
46846;BME280;33947;46.804;134.252;2023-03-24T09:51:44;101335.47;;;0.13;56.63
46846;BME280;33947;46.804;134.252;2023-03-24T09:54:56;101349.44;;;0.15;55.89
46846;BME280;33947;46.804;134.252;2023-03-24T09:58:07;101352.63;;;0.05;56.18
46846;BME280;33947;46.804;134.252;2023-03-24T10:01:16;101354.75;;;-0.12;57.57
46846;BME280;33947;46.804;134.252;2023-03-24T10:04:21;101366.53;;;-0.25;58.47
46846;BME280;33947;46.804;134.252;2023-03-24T10:07:33;101366.81;;;-0.45;58.63
46846;BME280;33947;46.804;134.252;2023-03-24T10:11:02;101369.06;;;-0.28;59.20
46846;BME280;33947;46.804;134.252;2023-03-24T10:20:51;101371.84;;;-0.22;57.49
46846;BME280;33947;46.804;134.252;2023-03-24T10:24:12;101373.19;;;-0.64;59.37
46846;BME280;33947;46.804;134.252;2023-03-24T10:27:35;101369.81;;;-0.88;60.73
46846;BME280;33947;46.804;134.252;2023-03-24T10:30:43;101367.66;;;-0.46;58.70
46846;BME280;33947;46.804;134.252;2023-03-24T10:33:51;101376.69;;;-0.36;58.01
46846;BME280;33947;46.804;134.252;2023-03-24T10:37:01;101374.50;;;-0.50;58.74
46846;BME280;33947;46.804;134.252;2023-03-24T10:40:17;101367.50;;;-1.04;61.81
46846;BME280;33947;46.804;134.252;2023-03-24T10:43:25;101371.88;;;-1.03;60.81
46846;BME280;33947;46.804;134.252;2023-03-24T10:46:30;101376.56;;;-0.67;59.49
46846;BME280;33947;46.804;134.252;2023-03-24T10:49:37;101389.91;;;-0.57;58.81
46846;BME280;33947;46.804;134.252;2023-03-24T10:52:46;101377.41;;;-0.68;59.59
46846;BME280;33947;46.804;134.252;2023-03-24T10:55:52;101393.78;;;-0.72;59.81
46846;BME280;33947;46.804;134.252;2023-03-24T10:58:57;101382.50;;;-0.71;59.62
46846;BME280;33947;46.804;134.252;2023-03-24T11:02:15;101400.00;;;-0.68;59.82
46846;BME280;33947;46.804;134.252;2023-03-24T11:05:24;101390.72;;;-0.86;59.70
46846;BME280;33947;46.804;134.252;2023-03-24T11:11:36;101379.16;;;-0.94;60.16
46846;BME280;33947;46.804;134.252;2023-03-24T11:14:44;101396.00;;;-0.84;60.14
46846;BME280;33947;46.804;134.252;2023-03-24T11:22:42;101395.34;;;-1.03;60.58
46846;BME280;33947;46.804;134.252;2023-03-24T11:30:42;101337.78;;;-1.84;62.41
46846;BME280;33947;46.804;134.252;2023-03-24T11:34:48;101408.28;;;-1.06;60.31
46846;BME280;33947;46.804;134.252;2023-03-24T11:38:31;101347.44;;;-1.07;59.37
46846;BME280;33947;46.804;134.252;2023-03-24T11:41:38;101362.00;;;-0.88;58.20
46846;BME280;33947;46.804;134.252;2023-03-24T11:44:47;101400.59;;;-0.77;58.72
46846;BME280;33947;46.804;134.252;2023-03-24T11:47:55;101407.75;;;-0.96;59.61
46846;BME280;33947;46.804;134.252;2023-03-24T11:51:02;101407.47;;;-1.29;60.40
46846;BME280;33947;46.804;134.252;2023-03-24T11:54:17;101409.09;;;-1.57;62.74
46846;BME280;33947;46.804;134.252;2023-03-24T11:57:26;101413.94;;;-1.91;65.41
46846;BME280;33947;46.804;134.252;2023-03-24T12:00:50;101419.06;;;-1.70;63.77
46846;BME280;33947;46.804;134.252;2023-03-24T12:04:06;101410.09;;;-1.54;62.77
46846;BME280;33947;46.804;134.252;2023-03-24T12:10:51;101425.81;;;-1.28;60.80
46846;BME280;33947;46.804;134.252;2023-03-24T12:14:00;101429.50;;;-1.46;61.73
46846;BME280;33947;46.804;134.252;2023-03-24T12:17:16;101414.28;;;-1.82;63.92
46846;BME280;33947;46.804;134.252;2023-03-24T12:24:24;101429.16;;;-2.23;66.55
46846;BME280;33947;46.804;134.252;2023-03-24T12:27:36;101421.84;;;-2.11;65.26
46846;BME280;33947;46.804;134.252;2023-03-24T12:34:02;101424.69;;;-1.82;64.23
46846;BME280;33947;46.804;134.252;2023-03-24T12:37:33;101428.78;;;-1.88;63.62
46846;BME280;33947;46.804;134.252;2023-03-24T12:57:41;101427.28;;;-1.59;62.62
46846;BME280;33947;46.804;134.252;2023-03-24T13:04:33;101424.72;;;-2.05;64.29
46846;BME280;33947;46.804;134.252;2023-03-24T13:07:41;101442.44;;;-2.38;65.81
46846;BME280;33947;46.804;134.252;2023-03-24T13:10:51;101411.44;;;-2.76;67.18
46846;BME280;33947;46.804;134.252;2023-03-24T13:14:00;101445.56;;;-2.47;66.68
46846;BME280;33947;46.804;134.252;2023-03-24T13:17:16;101452.97;;;-2.78;67.96
46846;BME280;33947;46.804;134.252;2023-03-24T13:20:27;101443.72;;;-2.92;69.91
46846;BME280;33947;46.804;134.252;2023-03-24T13:33:29;101435.59;;;-2.36;65.63
46846;BME280;33947;46.804;134.252;2023-03-24T13:36:54;101432.06;;;-2.59;66.52
46846;BME280;33947;46.804;134.252;2023-03-24T13:40:04;101434.91;;;-2.53;66.62
46846;BME280;33947;46.804;134.252;2023-03-24T13:43:18;101380.50;;;-2.47;64.71
46846;BME280;33947;46.804;134.252;2023-03-24T13:46:23;101433.09;;;-1.89;62.89
46846;BME280;33947;46.804;134.252;2023-03-24T13:49:30;101419.47;;;-1.82;62.35
46846;BME280;33947;46.804;134.252;2023-03-24T13:52:39;101434.56;;;-1.73;62.68
46846;BME280;33947;46.804;134.252;2023-03-24T13:55:51;101386.75;;;-2.43;64.27
46846;BME280;33947;46.804;134.252;2023-03-24T14:09:04;101442.66;;;-3.17;69.67
46846;BME280;33947;46.804;134.252;2023-03-24T14:12:16;101445.31;;;-3.15;70.17
46846;BME280;33947;46.804;134.252;2023-03-24T14:21:38;101448.28;;;-2.86;68.10
46846;BME280;33947;46.804;134.252;2023-03-24T14:24:45;101452.13;;;-2.98;67.87
46846;BME280;33947;46.804;134.252;2023-03-24T14:31:32;101437.94;;;-3.45;69.68
46846;BME280;33947;46.804;134.252;2023-03-24T14:34:57;101448.75;;;-3.16;68.75
46846;BME280;33947;46.804;134.252;2023-03-24T14:38:20;101454.72;;;-2.98;68.33
46846;BME280;33947;46.804;134.252;2023-03-24T14:41:28;101469.16;;;-3.05;68.09
46846;BME280;33947;46.804;134.252;2023-03-24T14:47:59;101464.25;;;-3.18;70.14
46846;BME280;33947;46.804;134.252;2023-03-24T14:54:53;101472.56;;;-2.86;69.04
46846;BME280;33947;46.804;134.252;2023-03-24T14:58:05;101476.81;;;-2.88;69.16
46846;BME280;33947;46.804;134.252;2023-03-24T15:01:16;101464.13;;;-3.01;69.51
46846;BME280;33947;46.804;134.252;2023-03-24T15:04:20;101471.09;;;-3.00;70.97
46846;BME280;33947;46.804;134.252;2023-03-24T15:07:24;101469.53;;;-2.76;68.91
46846;BME280;33947;46.804;134.252;2023-03-24T15:13:57;101468.09;;;-2.48;67.37
46846;BME280;33947;46.804;134.252;2023-03-24T15:17:15;101483.63;;;-2.70;69.26
46846;BME280;33947;46.804;134.252;2023-03-24T15:20:32;101420.94;;;-2.98;68.85
46846;BME280;33947;46.804;134.252;2023-03-24T15:23:37;101467.72;;;-2.57;69.36
46846;BME280;33947;46.804;134.252;2023-03-24T15:26:42;101477.44;;;-2.53;68.98
46846;BME280;33947;46.804;134.252;2023-03-24T15:29:53;101472.13;;;-2.76;69.85
46846;BME280;33947;46.804;134.252;2023-03-24T15:32:58;101478.75;;;-2.63;69.85
46846;BME280;33947;46.804;134.252;2023-03-24T15:36:11;101482.06;;;-2.86;71.00
46846;BME280;33947;46.804;134.252;2023-03-24T15:39:18;101485.16;;;-2.54;69.34
46846;BME280;33947;46.804;134.252;2023-03-24T15:42:24;101491.41;;;-2.70;69.92
46846;BME280;33947;46.804;134.252;2023-03-24T15:45:34;101461.66;;;-2.98;70.93
46846;BME280;33947;46.804;134.252;2023-03-24T15:48:39;101515.69;;;-2.91;71.47
46846;BME280;33947;46.804;134.252;2023-03-24T15:51:48;101510.84;;;-2.83;72.26
46846;BME280;33947;46.804;134.252;2023-03-24T15:54:57;101514.66;;;-2.75;71.26
46846;BME280;33947;46.804;134.252;2023-03-24T15:58:41;101479.06;;;-2.76;71.08
46846;BME280;33947;46.804;134.252;2023-03-24T16:01:48;101516.34;;;-2.35;69.65
46846;BME280;33947;46.804;134.252;2023-03-24T16:04:57;101514.00;;;-2.28;68.38
46846;BME280;33947;46.804;134.252;2023-03-24T16:08:26;101512.09;;;-2.33;68.74
46846;BME280;33947;46.804;134.252;2023-03-24T16:11:31;101516.38;;;-2.33;69.02
46846;BME280;33947;46.804;134.252;2023-03-24T16:14:35;101511.09;;;-1.92;67.46
46846;BME280;33947;46.804;134.252;2023-03-24T16:17:41;101502.59;;;-1.65;65.58
46846;BME280;33947;46.804;134.252;2023-03-24T16:20:46;101495.78;;;-1.84;65.83
46846;BME280;33947;46.804;134.252;2023-03-24T16:23:52;101506.50;;;-1.99;67.74
46846;BME280;33947;46.804;134.252;2023-03-24T16:26:57;101509.53;;;-1.88;66.60
46846;BME280;33947;46.804;134.252;2023-03-24T16:30:05;101503.53;;;-1.86;67.03
46846;BME280;33947;46.804;134.252;2023-03-24T16:33:15;101506.38;;;-2.02;68.70
46846;BME280;33947;46.804;134.252;2023-03-24T16:36:19;101333.75;;;-2.89;67.32
46846;BME280;33947;46.804;134.252;2023-03-24T16:39:31;101503.44;;;-1.66;66.66
46846;BME280;33947;46.804;134.252;2023-03-24T16:42:36;101494.13;;;-1.60;66.84
46846;BME280;33947;46.804;134.252;2023-03-24T16:45:41;101488.31;;;-1.52;66.14
46846;BME280;33947;46.804;134.252;2023-03-24T16:48:48;101496.19;;;-1.28;64.96
46846;BME280;33947;46.804;134.252;2023-03-24T16:51:53;101505.38;;;-1.38;66.00
46846;BME280;33947;46.804;134.252;2023-03-24T16:54:57;101492.34;;;-1.38;65.57
46846;BME280;33947;46.804;134.252;2023-03-24T16:58:02;101498.38;;;-1.39;66.21
46846;BME280;33947;46.804;134.252;2023-03-24T17:04:29;101504.53;;;-1.60;67.78
46846;BME280;33947;46.804;134.252;2023-03-24T17:07:36;101499.97;;;-1.88;69.37
46846;BME280;33947;46.804;134.252;2023-03-24T17:10:41;101499.34;;;-1.82;69.11
46846;BME280;33947;46.804;134.252;2023-03-24T17:13:46;101503.31;;;-1.69;68.66
46846;BME280;33947;46.804;134.252;2023-03-24T17:16:51;101509.09;;;-1.77;69.24
46846;BME280;33947;46.804;134.252;2023-03-24T17:19:55;101508.16;;;-1.79;69.91
46846;BME280;33947;46.804;134.252;2023-03-24T17:23:08;101496.91;;;-1.78;69.29
46846;BME280;33947;46.804;134.252;2023-03-24T17:26:13;101502.00;;;-1.58;68.43
46846;BME280;33947;46.804;134.252;2023-03-24T17:29:18;101501.09;;;-1.58;68.19
46846;BME280;33947;46.804;134.252;2023-03-24T17:32:27;101498.69;;;-1.54;67.46
46846;BME280;33947;46.804;134.252;2023-03-24T17:35:32;101501.28;;;-1.31;66.68
46846;BME280;33947;46.804;134.252;2023-03-24T17:38:40;101497.06;;;-1.27;66.58
46846;BME280;33947;46.804;134.252;2023-03-24T17:41:45;101496.28;;;-1.25;66.10
46846;BME280;33947;46.804;134.252;2023-03-24T17:44:49;101487.53;;;-1.27;65.82
46846;BME280;33947;46.804;134.252;2023-03-24T17:47:54;101483.28;;;-1.48;66.68
46846;BME280;33947;46.804;134.252;2023-03-24T17:50:59;101467.53;;;-1.51;67.36
46846;BME280;33947;46.804;134.252;2023-03-24T17:54:03;101483.75;;;-1.81;68.28
46846;BME280;33947;46.804;134.252;2023-03-24T17:57:08;101487.97;;;-2.28;69.95
46846;BME280;33947;46.804;134.252;2023-03-24T18:00:13;101459.22;;;-2.31;69.95
46846;BME280;33947;46.804;134.252;2023-03-24T18:03:18;101477.78;;;-1.78;67.34
46846;BME280;33947;46.804;134.252;2023-03-24T18:06:24;101486.06;;;-1.66;66.38
46846;BME280;33947;46.804;134.252;2023-03-24T18:09:33;101481.59;;;-1.70;66.23
46846;BME280;33947;46.804;134.252;2023-03-24T18:12:37;101483.66;;;-1.61;65.72
46846;BME280;33947;46.804;134.252;2023-03-24T18:15:41;101489.97;;;-1.54;65.49
46846;BME280;33947;46.804;134.252;2023-03-24T18:18:46;101458.72;;;-1.77;64.82
46846;BME280;33947;46.804;134.252;2023-03-24T18:21:50;101477.56;;;-1.84;65.49
46846;BME280;33947;46.804;134.252;2023-03-24T18:24:55;101485.09;;;-1.91;66.10
46846;BME280;33947;46.804;134.252;2023-03-24T18:28:00;101481.56;;;-2.15;67.99
46846;BME280;33947;46.804;134.252;2023-03-24T18:31:13;101484.31;;;-2.11;67.47
46846;BME280;33947;46.804;134.252;2023-03-24T18:34:18;101480.91;;;-2.31;68.18
46846;BME280;33947;46.804;134.252;2023-03-24T18:37:25;101478.31;;;-2.31;68.19
46846;BME280;33947;46.804;134.252;2023-03-24T18:40:29;101487.13;;;-2.49;68.72
46846;BME280;33947;46.804;134.252;2023-03-24T18:43:35;101478.00;;;-2.60;69.76
46846;BME280;33947;46.804;134.252;2023-03-24T18:46:48;101477.34;;;-2.54;69.50